Time;durP1;ratioP1;P1;durP2;ratioP2;P2;SDS_P1;SDS_P2;PMS_P1;PMS_P2;Temp;Humidity;BMP_temperature;BMP_pressure;BME280_temperature;BME280_humidity;BME280_pressure;Samples;Min_cycle;Max_cycle;Signal;HPM_P1;HPM_P2
2024/01/25 00:01:33;;;;;;;10.05;2.40;;;;;;;;;;5098183;28;20008;-81
2024/01/25 00:03:58;;;;;;;8.70;2.63;;;;;;;;;;5098222;28;20020;-81
2024/01/25 00:06:23;;;;;;;10.75;2.42;;;;;;;;;;5097774;28;20038;-81
2024/01/25 00:08:48;;;;;;;12.02;2.30;;;;;;;;;;5097466;28;20102;-83
2024/01/25 00:11:14;;;;;;;11.93;3.08;;;;;;;;;;5097515;28;20016;-82
2024/01/25 00:13:39;;;;;;;11.90;2.10;;;;;;;;;;5097649;28;20100;-82
2024/01/25 00:16:05;;;;;;;12.45;2.67;;;;;;;;;;5097898;28;20403;-81
2024/01/25 00:18:30;;;;;;;10.43;2.70;;;;;;;;;;5097296;28;20016;-81
2024/01/25 00:20:55;;;;;;;13.43;2.83;;;;;;;;;;5097370;28;20476;-83
2024/01/25 00:23:21;;;;;;;8.80;2.60;;;;;;;;;;5097061;28;20373;-82
2024/01/25 00:25:46;;;;;;;8.02;2.90;;;;;;;;;;5078825;28;20385;-82
2024/01/25 00:28:12;;;;;;;17.95;3.22;;;;;;;;;;5096893;28;20080;-82
2024/01/25 00:30:38;;;;;;;10.70;2.90;;;;;;;;;;5097311;28;20023;-81
2024/01/25 00:33:03;;;;;;;15.48;2.45;;;;;;;;;;5097027;28;20020;-83
2024/01/25 00:35:29;;;;;;;12.77;2.53;;;;;;;;;;5095848;28;20027;-82
2024/01/25 00:37:54;;;;;;;15.63;3.35;;;;;;;;;;5096902;28;20016;-81
2024/01/25 00:40:19;;;;;;;15.82;3.17;;;;;;;;;;5097527;28;20522;-82
2024/01/25 00:42:52;;;;;;;10.73;3.22;;;;;;;;;;5097059;28;20020;-82
2024/01/25 00:45:18;;;;;;;10.95;2.22;;;;;;;;;;5096794;28;20034;-82
2024/01/25 00:47:43;;;;;;;9.57;2.85;;;;;;;;;;5097051;28;20434;-82
2024/01/25 00:50:08;;;;;;;11.48;2.53;;;;;;;;;;5096870;28;20096;-83
2024/01/25 00:52:35;;;;;;;11.07;2.50;;;;;;;;;;5096731;28;20035;-83
2024/01/25 00:55:01;;;;;;;8.38;2.25;;;;;;;;;;5078595;28;20525;-81
2024/01/25 00:57:26;;;;;;;13.93;2.45;;;;;;;;;;5096834;28;20042;-81
2024/01/25 00:59:52;;;;;;;10.48;2.55;;;;;;;;;;5097051;28;20132;-80
2024/01/25 01:02:17;;;;;;;11.13;2.60;;;;;;;;;;5096641;28;20035;-81
2024/01/25 01:04:43;;;;;;;11.73;2.80;;;;;;;;;;5096285;28;20091;-83
2024/01/25 01:07:09;;;;;;;11.35;2.42;;;;;;;;;;5096244;28;20487;-80
2024/01/25 01:09:35;;;;;;;13.32;2.88;;;;;;;;;;5096456;28;20016;-81
2024/01/25 01:12:00;;;;;;;13.95;3.00;;;;;;;;;;5096468;28;20043;-80
2024/01/25 01:14:25;;;;;;;13.02;2.65;;;;;;;;;;5078411;28;20461;-81
2024/01/25 01:16:51;;;;;;;10.77;3.22;;;;;;;;;;5096159;28;20027;-81
2024/01/25 01:19:16;;;;;;;17.48;3.17;;;;;;;;;;5096262;28;20016;-82
2024/01/25 01:21:43;;;;;;;11.02;2.22;;;;;;;;;;5096223;28;20024;-81
2024/01/25 01:24:09;;;;;;;14.52;3.67;;;;;;;;;;5096696;28;20020;-82
2024/01/25 01:26:35;;;;;;;9.57;2.05;;;;;;;;;;5095905;28;20016;-83
2024/01/25 01:29:00;;;;;;;9.68;2.80;;;;;;;;;;5096022;28;20035;-83
2024/01/25 01:31:25;;;;;;;12.57;2.38;;;;;;;;;;5096304;28;20020;-82
2024/01/25 01:33:51;;;;;;;15.35;3.55;;;;;;;;;;5095914;28;20028;-81
2024/01/25 01:36:16;;;;;;;14.52;3.10;;;;;;;;;;5095523;28;20419;-80
2024/01/25 01:38:41;;;;;;;16.70;3.50;;;;;;;;;;5096896;28;20020;-80
2024/01/25 01:41:07;;;;;;;11.13;2.80;;;;;;;;;;5096527;28;20034;-80
2024/01/25 01:43:32;;;;;;;11.57;2.80;;;;;;;;;;5095815;28;20134;-82
2024/01/25 01:46:04;;;;;;;11.60;2.63;;;;;;;;;;5096042;28;20055;-81
2024/01/25 01:48:29;;;;;;;;;;;;;;;;;;5096057;28;20028;-81
2024/01/25 01:50:54;;;;;;;11.38;2.47;;;;;;;;;;5096584;28;19907;-82
2024/01/25 01:53:19;;;;;;;14.75;2.97;;;;;;;;;;5095797;28;20024;-80
2024/01/25 01:55:45;;;;;;;13.85;3.03;;;;;;;;;;5095649;28;20318;-79
2024/01/25 01:58:10;;;;;;;15.13;2.40;;;;;;;;;;5095755;28;20461;-82
2024/01/25 02:00:36;;;;;;;17.15;3.38;;;;;;;;;;5095527;28;20028;-83
2024/01/25 02:03:02;;;;;;;10.18;3.22;;;;;;;;;;5095601;28;20016;-80
2024/01/25 02:05:27;;;;;;;11.05;3.38;;;;;;;;;;5095615;28;20032;-80
2024/01/25 02:07:54;;;;;;;20.42;3.05;;;;;;;;;;5095738;28;20087;-81
2024/01/25 02:10:19;;;;;;;15.63;2.90;;;;;;;;;;5095786;28;20450;-82
2024/01/25 02:12:44;;;;;;;8.27;2.28;;;;;;;;;;5096267;28;20020;-80
2024/01/25 02:15:10;;;;;;;11.18;2.50;;;;;;;;;;5078458;28;20026;-81
2024/01/25 02:17:35;;;;;;;10.23;3.20;;;;;;;;;;5077919;28;20008;-80
2024/01/25 02:20:02;;;;;;;10.77;3.00;;;;;;;;;;5095096;28;20456;-82
2024/01/25 02:22:28;;;;;;;12.65;3.65;;;;;;;;;;5096486;28;20042;-83
2024/01/25 02:24:53;;;;;;;12.98;3.78;;;;;;;;;;5095402;28;20076;-81
2024/01/25 02:27:18;;;;;;;10.32;2.75;;;;;;;;;;5095000;28;20044;-80
2024/01/25 02:29:44;;;;;;;10.88;2.90;;;;;;;;;;5095169;28;20024;-80
2024/01/25 02:32:09;;;;;;;11.88;3.10;;;;;;;;;;5094768;28;20032;-80
2024/01/25 02:34:34;;;;;;;13.40;2.47;;;;;;;;;;5095172;28;20100;-81
2024/01/25 02:37:00;;;;;;;11.80;2.95;;;;;;;;;;5081094;28;20023;-80
2024/01/25 02:39:25;;;;;;;14.27;2.50;;;;;;;;;;5105456;28;20392;-83
2024/01/25 02:41:51;;;;;;;14.52;2.80;;;;;;;;;;5107829;28;20051;-82
2024/01/25 02:44:16;;;;;;;14.27;3.35;;;;;;;;;;5105012;28;20035;-82
2024/01/25 02:46:44;;;;;;;10.93;2.95;;;;;;;;;;5097817;28;20020;-82
2024/01/25 02:49:09;;;;;;;11.95;2.83;;;;;;;;;;5094673;28;20024;-80
2024/01/25 02:51:35;;;;;;;11.63;3.03;;;;;;;;;;5095105;28;20023;-80
2024/01/25 02:54:00;;;;;;;9.95;2.50;;;;;;;;;;5094810;28;20016;-82
2024/01/25 02:56:26;;;;;;;9.98;2.80;;;;;;;;;;5094847;28;20020;-83
2024/01/25 02:58:51;;;;;;;9.35;2.42;;;;;;;;;;5094550;28;20016;-81
2024/01/25 03:01:16;;;;;;;11.95;2.28;;;;;;;;;;5094749;28;20016;-82
2024/01/25 03:03:43;;;;;;;14.57;3.28;;;;;;;;;;5094216;28;20127;-83
2024/01/25 03:06:09;;;;;;;10.43;2.85;;;;;;;;;;5094651;28;20093;-82
2024/01/25 03:08:34;;;;;;;9.35;2.65;;;;;;;;;;5094663;28;20373;-81
2024/01/25 03:11:00;;;;;;;8.07;2.65;;;;;;;;;;5094459;28;20066;-82
2024/01/25 03:13:25;;;;;;;14.40;3.60;;;;;;;;;;5094623;28;20041;-81
2024/01/25 03:15:50;;;;;;;13.88;2.45;;;;;;;;;;5094075;28;20012;-83
2024/01/25 03:18:16;;;;;;;9.63;2.70;;;;;;;;;;5094217;28;20013;-81
2024/01/25 03:20:41;;;;;;;11.32;2.38;;;;;;;;;;5094491;28;20012;-82
2024/01/25 03:23:06;;;;;;;7.88;2.00;;;;;;;;;;5094032;28;20198;-82
2024/01/25 03:25:32;;;;;;;10.63;2.53;;;;;;;;;;5076216;28;20035;-82
2024/01/25 03:27:57;;;;;;;10.48;2.35;;;;;;;;;;5093878;28;20098;-82
2024/01/25 03:30:22;;;;;;;9.45;2.45;;;;;;;;;;5094962;28;20441;-80
2024/01/25 03:32:47;;;;;;;10.70;2.55;;;;;;;;;;5100226;28;20102;-81
2024/01/25 03:35:13;;;;;;;9.77;3.13;;;;;;;;;;5081014;28;20012;-81
2024/01/25 03:37:38;;;;;;;11.35;3.22;;;;;;;;;;5098517;28;20022;-81
2024/01/25 03:40:04;;;;;;;8.73;1.80;;;;;;;;;;5079659;28;20028;-82
2024/01/25 03:42:30;;;;;;;9.32;2.42;;;;;;;;;;5098473;28;20526;-81
2024/01/25 03:44:55;;;;;;;13.75;2.58;;;;;;;;;;5098961;28;20054;-80
2024/01/25 03:47:20;;;;;;;7.40;2.08;;;;;;;;;;5098242;28;20380;-81
2024/01/25 03:49:46;;;;;;;9.85;2.05;;;;;;;;;;5098560;28;20027;-80
2024/01/25 03:52:11;;;;;;;12.38;2.20;;;;;;;;;;5099564;28;20020;-82
2024/01/25 03:54:37;;;;;;;9.88;2.60;;;;;;;;;;5099008;28;20012;-81
2024/01/25 03:57:02;;;;;;;17.85;2.75;;;;;;;;;;5098246;28;20024;-82
2024/01/25 03:59:28;;;;;;;13.15;2.88;;;;;;;;;;5098325;28;20024;-83
2024/01/25 04:01:53;;;;;;;9.77;2.78;;;;;;;;;;5098184;28;20023;-81
2024/01/25 04:04:18;;;;;;;8.43;2.70;;;;;;;;;;5083944;28;20009;-82
2024/01/25 04:06:45;;;;;;;8.55;2.13;;;;;;;;;;5102431;28;20028;-82
2024/01/25 04:09:11;;;;;;;12.20;3.08;;;;;;;;;;5085276;28;20016;-81
2024/01/25 04:11:37;;;;;;;10.55;3.50;;;;;;;;;;5095940;28;20019;-81
2024/01/25 04:14:21;;;;;;;14.85;2.97;;;;;;;;;;5114883;28;20024;-82
2024/01/25 04:16:47;;;;;;;15.23;2.90;;;;;;;;;;5115453;28;20032;-82
2024/01/25 04:19:12;;;;;;;10.90;2.63;;;;;;;;;;5114813;28;20016;-82
2024/01/25 04:21:38;;;;;;;11.77;2.70;;;;;;;;;;5086146;28;20069;-82
2024/01/25 04:24:04;;;;;;;10.52;2.28;;;;;;;;;;5097899;28;20371;-82
2024/01/25 04:26:29;;;;;;;18.10;3.00;;;;;;;;;;5097990;28;20376;-81
2024/01/25 04:28:54;;;;;;;14.52;2.40;;;;;;;;;;5096758;28;20078;-81
2024/01/25 04:31:19;;;;;;;8.77;2.38;;;;;;;;;;5079054;28;20016;-81
2024/01/25 04:33:45;;;;;;;12.20;2.80;;;;;;;;;;5078287;28;20024;-82
2024/01/25 04:36:10;;;;;;;13.63;2.50;;;;;;;;;;5078103;28;20066;-82
2024/01/25 04:38:35;;;;;;;11.98;2.53;;;;;;;;;;5078122;28;20012;-82
2024/01/25 04:41:01;;;;;;;10.18;2.53;;;;;;;;;;5097015;28;20391;-81
2024/01/25 04:43:26;;;;;;;14.35;3.03;;;;;;;;;;5102701;28;20023;-82
2024/01/25 04:45:52;;;;;;;10.88;2.65;;;;;;;;;;5084501;28;20367;-82
2024/01/25 04:48:17;;;;;;;13.85;3.20;;;;;;;;;;5084785;28;20077;-81
2024/01/25 04:50:42;;;;;;;13.70;3.75;;;;;;;;;;5080820;28;20403;-81
2024/01/25 04:53:08;;;;;;;14.50;3.35;;;;;;;;;;5097298;28;20031;-81
2024/01/25 04:55:33;;;;;;;17.40;3.05;;;;;;;;;;5079013;28;20485;-81
2024/01/25 04:57:58;;;;;;;13.43;3.28;;;;;;;;;;5096826;28;20503;-82
2024/01/25 05:00:24;;;;;;;9.75;3.33;;;;;;;;;;5099789;28;20021;-81
2024/01/25 05:02:49;;;;;;;11.85;3.33;;;;;;;;;;5095845;28;20024;-81
2024/01/25 05:05:14;;;;;;;7.95;2.47;;;;;;;;;;5094916;28;20019;-81
2024/01/25 05:07:40;;;;;;;9.10;2.60;;;;;;;;;;5077024;28;20057;-83
2024/01/25 05:10:05;;;;;;;12.65;2.80;;;;;;;;;;5076699;28;20036;-83
2024/01/25 05:12:31;;;;;;;11.93;2.80;;;;;;;;;;5095487;28;20477;-82
2024/01/25 05:14:56;;;;;;;8.77;3.38;;;;;;;;;;5097367;28;20020;-82
2024/01/25 05:17:21;;;;;;;10.75;2.85;;;;;;;;;;5098085;28;20029;-82
2024/01/25 05:19:47;;;;;;;11.82;2.33;;;;;;;;;;5097198;28;20020;-82
2024/01/25 05:22:12;;;;;;;12.45;2.90;;;;;;;;;;5077851;28;20024;-81
2024/01/25 05:24:37;;;;;;;15.48;2.83;;;;;;;;;;5096203;28;20047;-81
2024/01/25 05:27:03;;;;;;;10.07;2.97;;;;;;;;;;5031846;28;1240287;-83
2024/01/25 05:29:29;;;;;;;10.93;2.33;;;;;;;;;;5077677;28;20162;-81
2024/01/25 05:31:54;;;;;;;14.48;2.83;;;;;;;;;;5077897;28;20029;-80
2024/01/25 05:34:20;;;;;;;12.82;2.97;;;;;;;;;;5077646;28;20020;-83
2024/01/25 05:36:45;;;;;;;11.70;2.30;;;;;;;;;;5077983;28;20103;-82
2024/01/25 05:39:10;;;;;;;13.00;3.35;;;;;;;;;;5077367;28;20025;-81
2024/01/25 05:41:36;;;;;;;13.38;2.60;;;;;;;;;;5076526;28;20103;-82
2024/01/25 05:44:01;;;;;;;9.52;2.50;;;;;;;;;;5075809;28;20036;-81
2024/01/25 05:46:26;;;;;;;10.18;2.88;;;;;;;;;;5074510;28;20058;-82
2024/01/25 05:48:52;;;;;;;13.05;2.47;;;;;;;;;;5076122;28;20024;-80
2024/01/25 05:51:17;;;;;;;13.65;3.15;;;;;;;;;;5076063;28;20174;-81
2024/01/25 05:53:43;;;;;;;14.80;3.08;;;;;;;;;;5075329;28;20039;-82
2024/01/25 05:56:08;;;;;;;12.90;3.13;;;;;;;;;;5076096;28;20480;-82
2024/01/25 05:58:33;;;;;;;9.27;3.25;;;;;;;;;;5075813;28;20031;-82
2024/01/25 06:00:59;;;;;;;10.20;3.00;;;;;;;;;;5076298;28;20017;-81
2024/01/25 06:03:24;;;;;;;10.98;3.40;;;;;;;;;;5075639;28;20143;-81
2024/01/25 06:05:49;;;;;;;12.60;3.22;;;;;;;;;;5075905;28;20027;-81
2024/01/25 06:08:15;;;;;;;12.85;3.03;;;;;;;;;;5076010;28;20024;-81
2024/01/25 06:10:40;;;;;;;13.10;3.45;;;;;;;;;;5074274;28;20093;-80
2024/01/25 06:13:05;;;;;;;15.55;3.63;;;;;;;;;;5075351;28;20028;-82
2024/01/25 06:15:31;;;;;;;16.27;2.63;;;;;;;;;;5075805;28;20024;-81
2024/01/25 06:17:57;;;;;;;12.05;3.15;;;;;;;;;;5075619;28;20021;-81
2024/01/25 06:20:22;;;;;;;10.82;2.88;;;;;;;;;;5075931;28;20028;-82
2024/01/25 06:22:48;;;;;;;11.77;3.38;;;;;;;;;;5091270;28;20071;-81
2024/01/25 06:25:13;;;;;;;13.48;3.78;;;;;;;;;;5091249;28;20036;-81
2024/01/25 06:27:38;;;;;;;13.82;3.40;;;;;;;;;;5084467;28;20056;-82
2024/01/25 06:30:04;;;;;;;12.07;3.90;;;;;;;;;;5095475;28;20030;-80
2024/01/25 06:32:29;;;;;;;21.52;3.97;;;;;;;;;;5095652;28;20437;-81
2024/01/25 06:34:54;;;;;;;15.52;3.67;;;;;;;;;;5077053;28;20103;-81
2024/01/25 06:37:20;;;;;;;15.45;3.90;;;;;;;;;;5077211;28;20016;-82
2024/01/25 06:39:45;;;;;;;17.05;2.78;;;;;;;;;;5077352;28;20012;-80
2024/01/25 06:42:10;;;;;;;13.25;3.53;;;;;;;;;;5095869;28;20103;-81
2024/01/25 06:44:35;;;;;;;23.27;3.97;;;;;;;;;;5095890;28;20042;-81
2024/01/25 06:47:01;;;;;;;15.38;3.60;;;;;;;;;;5095699;28;20028;-82
2024/01/25 06:49:26;;;;;;;89.20;8.85;;;;;;;;;;5094333;28;20032;-83
2024/01/25 06:51:51;;;;;;;56.20;6.97;;;;;;;;;;5095783;28;20028;-83
2024/01/25 06:54:17;;;;;;;39.30;5.88;;;;;;;;;;5077489;28;20020;-82
2024/01/25 06:56:42;;;;;;;26.40;4.30;;;;;;;;;;5095922;28;20453;-81
2024/01/25 06:59:07;;;;;;;22.80;4.40;;;;;;;;;;5076444;28;20028;-81
2024/01/25 07:01:33;;;;;;;30.70;4.10;;;;;;;;;;5095031;28;20016;-82
2024/01/25 07:03:58;;;;;;;16.40;3.80;;;;;;;;;;5094838;28;20142;-83
2024/01/25 07:06:23;;;;;;;20.88;4.00;;;;;;;;;;5095129;28;20024;-81
2024/01/25 07:08:49;;;;;;;24.17;5.13;;;;;;;;;;5095177;28;20050;-81
2024/01/25 07:11:14;;;;;;;42.80;6.35;;;;;;;;;;5094876;28;20073;-82
2024/01/25 07:13:41;;;;;;;36.45;5.13;;;;;;;;;;5094729;28;20103;-82
2024/01/25 07:16:06;;;;;;;24.13;4.20;;;;;;;;;;5077017;28;20458;-81
2024/01/25 07:18:31;;;;;;;73.38;7.10;;;;;;;;;;5095245;28;20024;-83
2024/01/25 07:20:57;;;;;;;23.25;3.80;;;;;;;;;;5094784;28;20044;-82
2024/01/25 07:23:22;;;;;;;24.02;3.70;;;;;;;;;;5096286;28;20051;-81
2024/01/25 07:25:47;;;;;;;17.67;3.55;;;;;;;;;;5096298;28;20032;-83
2024/01/25 07:28:13;;;;;;;22.42;3.50;;;;;;;;;;5094966;28;20052;-82
2024/01/25 07:30:38;;;;;;;36.25;4.38;;;;;;;;;;5095230;28;20088;-80
2024/01/25 07:33:04;;;;;;;24.67;3.78;;;;;;;;;;5095683;28;20020;-80
2024/01/25 07:35:29;;;;;;;59.65;7.43;;;;;;;;;;5095374;28;20027;-81
2024/01/25 07:37:54;;;;;;;30.27;4.13;;;;;;;;;;5094730;28;20016;-81
2024/01/25 07:40:20;;;;;;;18.42;3.42;;;;;;;;;;5094539;28;20077;-82
2024/01/25 07:42:47;;;;;;;42.75;5.22;;;;;;;;;;5094951;28;20048;-82
2024/01/25 07:45:13;;;;;;;36.67;5.15;;;;;;;;;;5076541;28;20028;-81
2024/01/25 07:47:41;;;;;;;33.80;4.30;;;;;;;;;;5095513;28;20054;-81
2024/01/25 07:50:06;;;;;;;24.88;4.40;;;;;;;;;;5096276;28;20087;-81
2024/01/25 07:52:31;;;;;;;14.95;3.13;;;;;;;;;;5096399;28;20048;-81
2024/01/25 07:54:57;;;;;;;17.33;3.83;;;;;;;;;;5096010;28;20040;-81
2024/01/25 07:57:22;;;;;;;16.48;3.65;;;;;;;;;;5094365;28;20027;-82
2024/01/25 07:59:47;;;;;;;18.73;3.22;;;;;;;;;;5093171;28;20189;-82
2024/01/25 08:02:13;;;;;;;12.75;3.40;;;;;;;;;;5093302;28;20063;-83
2024/01/25 08:04:38;;;;;;;40.75;5.85;;;;;;;;;;5095391;28;20481;-82
2024/01/25 08:07:03;;;;;;;17.95;3.60;;;;;;;;;;5095857;28;20041;-82
2024/01/25 08:09:29;;;;;;;12.90;2.95;;;;;;;;;;5094742;28;20065;-82
2024/01/25 08:11:54;;;;;;;19.33;3.55;;;;;;;;;;5095093;28;20028;-82
2024/01/25 08:14:19;;;;;;;16.40;3.30;;;;;;;;;;5095970;28;20077;-81
2024/01/25 08:16:45;;;;;;;13.73;3.33;;;;;;;;;;5096798;28;20031;-82
2024/01/25 08:19:10;;;;;;;18.42;3.55;;;;;;;;;;5099211;28;20020;-81
2024/01/25 08:21:36;;;;;;;18.65;3.88;;;;;;;;;;5098424;28;20479;-81
2024/01/25 08:24:02;;;;;;;19.80;4.07;;;;;;;;;;5080483;28;20085;-82
2024/01/25 08:26:27;;;;;;;20.67;3.20;;;;;;;;;;5080562;28;20569;-81
2024/01/25 08:28:52;;;;;;;13.88;3.13;;;;;;;;;;5099210;28;20377;-82
2024/01/25 08:31:18;;;;;;;17.67;3.35;;;;;;;;;;5099606;28;20079;-82
2024/01/25 08:33:47;;;;;;;16.85;3.55;;;;;;;;;;5099093;28;20023;-81
2024/01/25 08:36:12;;;;;;;16.08;3.13;;;;;;;;;;5100034;28;20457;-83
2024/01/25 08:38:37;;;;;;;13.07;3.63;;;;;;;;;;5107472;28;20023;-82
2024/01/25 08:41:04;;;;;;;14.02;2.88;;;;;;;;;;5090318;28;20016;-82
2024/01/25 08:43:29;;;;;;;13.63;2.80;;;;;;;;;;5111703;28;20027;-81
2024/01/25 08:45:55;;;;;;;13.00;2.65;;;;;;;;;;5111421;28;20016;-81
2024/01/25 08:48:20;;;;;;;13.23;3.00;;;;;;;;;;5109242;28;20024;-82
2024/01/25 08:50:45;;;;;;;12.45;2.38;;;;;;;;;;5108014;28;20020;-83
2024/01/25 08:53:11;;;;;;;16.10;3.40;;;;;;;;;;5105709;28;20055;-82
2024/01/25 08:55:36;;;;;;;9.88;2.08;;;;;;;;;;5100010;28;20016;-81
2024/01/25 08:58:02;;;;;;;19.05;3.75;;;;;;;;;;5079815;28;20016;-81
2024/01/25 09:00:27;;;;;;;13.20;3.20;;;;;;;;;;5079508;28;20483;-80
2024/01/25 09:02:53;;;;;;;15.75;2.92;;;;;;;;;;5079347;28;20073;-83
2024/01/25 09:05:18;;;;;;;11.52;2.80;;;;;;;;;;5081095;28;20019;-82
2024/01/25 09:07:43;;;;;;;13.57;2.38;;;;;;;;;;5097439;28;20373;-81
2024/01/25 09:10:09;;;;;;;10.85;2.83;;;;;;;;;;5095506;28;20464;-82
2024/01/25 09:12:34;;;;;;;11.13;2.53;;;;;;;;;;5096929;28;20110;-81
2024/01/25 09:15:00;;;;;;;14.77;3.17;;;;;;;;;;5078563;28;20461;-82
2024/01/25 09:17:25;;;;;;;11.55;3.08;;;;;;;;;;5096512;28;20020;-82
2024/01/25 09:19:51;;;;;;;15.32;2.88;;;;;;;;;;5096863;28;20081;-82
2024/01/25 09:22:19;;;;;;;9.75;2.83;;;;;;;;;;5096722;28;20107;-83
2024/01/25 09:24:44;;;;;;;14.75;2.78;;;;;;;;;;5097358;28;20081;-82
2024/01/25 09:27:10;;;;;;;12.70;2.78;;;;;;;;;;5096425;28;20032;-83
2024/01/25 09:29:35;;;;;;;12.85;2.83;;;;;;;;;;5096061;28;20020;-82
2024/01/25 09:32:00;;;;;;;19.20;3.45;;;;;;;;;;5096317;28;20091;-82
2024/01/25 09:34:26;;;;;;;14.20;3.00;;;;;;;;;;5096998;28;20008;-82
2024/01/25 09:36:51;;;;;;;12.50;2.85;;;;;;;;;;5096666;28;20016;-83
2024/01/25 09:39:17;;;;;;;10.65;3.00;;;;;;;;;;5096745;28;20369;-82
2024/01/25 09:41:42;;;;;;;12.00;2.90;;;;;;;;;;5079247;28;20354;-82
2024/01/25 09:44:08;;;;;;;13.55;3.30;;;;;;;;;;5096942;28;20031;-82
2024/01/25 09:46:33;;;;;;;13.52;2.60;;;;;;;;;;5078629;28;20027;-82
2024/01/25 09:48:59;;;;;;;11.40;2.47;;;;;;;;;;5097613;28;20024;-83
2024/01/25 09:51:25;;;;;;;15.82;3.05;;;;;;;;;;5079518;28;20030;-83
2024/01/25 09:53:51;;;;;;;12.07;2.40;;;;;;;;;;5104188;28;20075;-80
2024/01/25 09:56:18;;;;;;;23.13;3.25;;;;;;;;;;5105003;28;20020;-83
2024/01/25 09:58:45;;;;;;;16.20;3.25;;;;;;;;;;5104786;28;20035;-85
2024/01/25 10:01:15;;;;;;;20.58;2.95;;;;;;;;;;5087301;28;20020;-82
2024/01/25 10:03:44;;;;;;;20.35;3.28;;;;;;;;;;5106898;28;20020;-83
2024/01/25 10:06:10;;;;;;;6.75;2.60;;;;;;;;;;5091482;28;20028;-82
2024/01/25 10:08:36;;;;;;;16.35;2.95;;;;;;;;;;5081982;28;20027;-80
2024/01/25 10:11:02;;;;;;;14.85;3.00;;;;;;;;;;5098357;28;20365;-82
2024/01/25 10:13:27;;;;;;;15.77;2.70;;;;;;;;;;5097252;28;20020;-81
2024/01/25 10:15:54;;;;;;;16.52;3.55;;;;;;;;;;5096753;28;20016;-82
2024/01/25 10:18:19;;;;;;;14.68;3.38;;;;;;;;;;5096428;28;20016;-83
2024/01/25 10:20:45;;;;;;;19.05;3.28;;;;;;;;;;5096188;28;20032;-81
2024/01/25 10:23:10;;;;;;;8.35;3.28;;;;;;;;;;5095617;28;20373;-82
2024/01/25 10:25:36;;;;;;;12.80;3.30;;;;;;;;;;5096186;28;20016;-82
2024/01/25 10:28:03;;;;;;;10.68;2.65;;;;;;;;;;5096326;28;20040;-83
2024/01/25 10:30:31;;;;;;;14.43;3.25;;;;;;;;;;5096776;28;20016;-81
2024/01/25 10:32:58;;;;;;;16.58;3.10;;;;;;;;;;5097461;28;20065;-81
2024/01/25 10:35:24;;;;;;;15.30;3.42;;;;;;;;;;5097323;28;20054;-81
2024/01/25 10:37:50;;;;;;;13.65;3.65;;;;;;;;;;5096447;28;20030;-81
2024/01/25 10:40:18;;;;;;;14.27;3.70;;;;;;;;;;5096699;28;20453;-81
2024/01/25 10:42:43;;;;;;;13.32;2.85;;;;;;;;;;5097183;28;20020;-82
2024/01/25 10:45:09;;;;;;;18.15;3.50;;;;;;;;;;5077690;28;20039;-82
2024/01/25 10:47:35;;;;;;;18.48;4.40;;;;;;;;;;5077898;28;20473;-82
2024/01/25 10:50:02;;;;;;;15.60;4.22;;;;;;;;;;5098750;28;20020;-83
2024/01/25 10:52:27;;;;;;;18.27;3.83;;;;;;;;;;5079655;28;20373;-82
2024/01/25 10:54:53;;;;;;;16.48;4.13;;;;;;;;;;5079562;28;20150;-82
2024/01/25 10:57:18;;;;;;;13.27;3.75;;;;;;;;;;5096383;28;20051;-81
2024/01/25 10:59:43;;;;;;;11.90;4.00;;;;;;;;;;5095378;28;20035;-83
2024/01/25 11:02:09;;;;;;;13.60;2.95;;;;;;;;;;5096176;28;20024;-82
2024/01/25 11:04:34;;;;;;;10.27;3.15;;;;;;;;;;5097396;28;20038;-82
2024/01/25 11:07:09;;;;;;;16.15;3.47;;;;;;;;;;5079642;28;20022;-82
2024/01/25 11:09:36;;;;;;;12.40;2.88;;;;;;;;;;5098093;28;20016;-83
2024/01/25 11:12:10;;;;;;;13.27;3.60;;;;;;;;;;5098392;28;20012;-81
2024/01/25 11:14:37;;;;;;;14.80;3.30;;;;;;;;;;5098315;28;20036;-82
2024/01/25 11:17:14;;;;;;;18.50;4.00;;;;;;;;;;5079299;28;20023;-82
2024/01/25 11:19:40;;;;;;;11.70;3.25;;;;;;;;;;5095944;28;20013;-82
2024/01/25 11:22:05;;;;;;;15.15;3.53;;;;;;;;;;5095618;28;20062;-82
2024/01/25 11:24:37;;;;;;;33.80;4.32;;;;;;;;;;5095817;28;20019;-83
2024/01/25 11:27:02;;;;;;;9.23;2.20;;;;;;;;;;5094833;28;20115;-82
2024/01/25 11:29:28;;;;;;;13.65;2.35;;;;;;;;;;5095063;28;20032;-81
2024/01/25 11:31:53;;;;;;;9.88;2.75;;;;;;;;;;5076421;28;20012;-82
2024/01/25 11:34:18;;;;;;;17.02;3.28;;;;;;;;;;5094698;28;20023;-82
2024/01/25 11:36:44;;;;;;;13.07;2.45;;;;;;;;;;5094562;28;20349;-82
2024/01/25 11:39:11;;;;;;;20.90;4.05;;;;;;;;;;5076976;28;20388;-80
2024/01/25 11:41:36;;;;;;;17.85;3.42;;;;;;;;;;5094702;28;20058;-82
2024/01/25 11:44:03;;;;;;;12.43;3.05;;;;;;;;;;5094472;28;20024;-82
2024/01/25 11:46:28;;;;;;;14.15;3.58;;;;;;;;;;5094286;28;20371;-82
2024/01/25 11:48:53;;;;;;;21.40;3.60;;;;;;;;;;5094377;28;20094;-83
2024/01/25 11:51:19;;;;;;;13.35;2.28;;;;;;;;;;5093744;28;20019;-83
2024/01/25 11:53:44;;;;;;;15.20;2.80;;;;;;;;;;5098859;28;20020;-82
2024/01/25 11:56:10;;;;;;;14.95;3.53;;;;;;;;;;5081133;28;20074;-82
2024/01/25 11:58:37;;;;;;;13.18;3.05;;;;;;;;;;5081035;28;20020;-83
2024/01/25 12:01:07;;;;;;;14.52;3.63;;;;;;;;;;5098912;28;20020;-82
2024/01/25 12:03:33;;;;;;;11.30;2.85;;;;;;;;;;5099632;28;20024;-80
2024/01/25 12:05:59;;;;;;;15.27;3.70;;;;;;;;;;5098959;28;20024;-83
2024/01/25 12:08:24;;;;;;;20.63;3.67;;;;;;;;;;5099129;28;20059;-82
2024/01/25 12:10:49;;;;;;;12.80;3.20;;;;;;;;;;5079964;28;20384;-82
2024/01/25 12:13:16;;;;;;;15.20;3.20;;;;;;;;;;5080419;28;20055;-83
2024/01/25 12:15:42;;;;;;;8.70;2.45;;;;;;;;;;5080172;28;20457;-82
2024/01/25 12:18:08;;;;;;;13.90;3.03;;;;;;;;;;5097596;28;20015;-84
2024/01/25 12:20:35;;;;;;;12.77;2.58;;;;;;;;;;5096942;28;20469;-81
2024/01/25 12:23:00;;;;;;;11.27;3.53;;;;;;;;;;5078897;28;20028;-81
2024/01/25 12:25:26;;;;;;;12.52;3.47;;;;;;;;;;5096943;28;20020;-80
2024/01/25 12:27:53;;;;;;;18.08;3.33;;;;;;;;;;5096811;28;20044;-85
2024/01/25 12:30:18;;;;;;;20.70;3.63;;;;;;;;;;5098262;28;20020;-83
2024/01/25 12:32:43;;;;;;;9.20;2.47;;;;;;;;;;5098300;28;20020;-87
2024/01/25 12:35:09;;;;;;;9.60;2.53;;;;;;;;;;5097753;28;20016;-86
2024/01/25 12:37:34;;;;;;;13.48;3.20;;;;;;;;;;5080009;28;20023;-88
2024/01/25 12:40:00;;;;;;;14.95;2.97;;;;;;;;;;5098915;28;20559;-86
2024/01/25 12:42:25;;;;;;;11.50;3.15;;;;;;;;;;5103830;28;20027;-85
2024/01/25 12:44:54;;;;;;;9.02;2.55;;;;;;;;;;5106350;28;20035;-84
2024/01/25 12:47:19;;;;;;;10.73;2.95;;;;;;;;;;5106671;28;20104;-87
2024/01/25 12:49:45;;;;;;;10.63;3.20;;;;;;;;;;5103955;28;20044;-87
2024/01/25 12:52:11;;;;;;;14.57;3.05;;;;;;;;;;5104499;28;20027;-87
2024/01/25 12:54:36;;;;;;;13.32;2.65;;;;;;;;;;5109378;28;20016;-87
2024/01/25 12:57:02;;;;;;;11.40;2.58;;;;;;;;;;5082204;28;20080;-86
2024/01/25 12:59:27;;;;;;;13.00;2.65;;;;;;;;;;5081098;28;20023;-86
2024/01/25 13:01:53;;;;;;;10.70;2.78;;;;;;;;;;5098808;28;20446;-88
2024/01/25 13:04:20;;;;;;;8.38;2.58;;;;;;;;;;5101039;28;20028;-88
2024/01/25 13:06:45;;;;;;;13.05;3.03;;;;;;;;;;5100231;28;20046;-88
2024/01/25 13:09:11;;;;;;;9.98;2.67;;;;;;;;;;5116686;28;20028;-86
2024/01/25 13:11:36;;;;;;;9.57;3.15;;;;;;;;;;5097505;28;20066;-88
2024/01/25 13:14:01;;;;;;;12.07;2.72;;;;;;;;;;5115174;28;20016;-86
2024/01/25 13:16:27;;;;;;;15.20;3.22;;;;;;;;;;5114389;28;20016;-88
2024/01/25 13:18:52;;;;;;;17.48;5.20;;;;;;;;;;5114976;28;20028;-87
2024/01/25 13:21:17;;;;;;;9.68;2.67;;;;;;;;;;5099691;28;20015;-85
2024/01/25 13:23:42;;;;;;;15.73;2.65;;;;;;;;;;5116632;28;20031;-86
2024/01/25 13:26:08;;;;;;;13.50;3.03;;;;;;;;;;5085489;28;20457;-87
2024/01/25 13:28:33;;;;;;;15.70;3.13;;;;;;;;;;5098268;28;20047;-88
2024/01/25 13:30:59;;;;;;;15.00;3.45;;;;;;;;;;5098678;28;20384;-88
2024/01/25 13:33:25;;;;;;;11.05;2.97;;;;;;;;;;5097318;28;20024;-86
2024/01/25 13:35:50;;;;;;;9.82;3.67;;;;;;;;;;5079521;28;20480;-86
2024/01/25 13:38:16;;;;;;;13.02;3.50;;;;;;;;;;5098543;28;20016;-87
2024/01/25 13:40:41;;;;;;;11.10;3.45;;;;;;;;;;5080573;28;20081;-87
2024/01/25 13:43:07;;;;;;;8.82;2.67;;;;;;;;;;5080590;28;20107;-85
2024/01/25 13:45:32;;;;;;;16.75;3.50;;;;;;;;;;5099604;28;20034;-87
2024/01/25 13:47:57;;;;;;;18.77;4.10;;;;;;;;;;5101256;28;20046;-87
2024/01/25 13:50:23;;;;;;;11.23;2.40;;;;;;;;;;5099739;28;20452;-87
2024/01/25 13:52:48;;;;;;;12.38;2.67;;;;;;;;;;5082835;28;20020;-86
2024/01/25 13:55:13;;;;;;;7.93;3.08;;;;;;;;;;5099112;28;20030;-88
2024/01/25 13:57:38;;;;;;;12.73;2.42;;;;;;;;;;5097599;28;20020;-87
2024/01/25 14:00:04;;;;;;;10.52;3.20;;;;;;;;;;5097678;28;20445;-86
2024/01/25 14:02:29;;;;;;;17.88;3.42;;;;;;;;;;5097811;28;20024;-85
2024/01/25 14:04:55;;;;;;;16.10;5.00;;;;;;;;;;5097400;28;20384;-87
2024/01/25 14:07:20;;;;;;;14.20;3.10;;;;;;;;;;5097068;28;20020;-87
2024/01/25 14:09:46;;;;;;;12.90;2.80;;;;;;;;;;5097707;28;20028;-88
2024/01/25 14:12:11;;;;;;;11.65;3.80;;;;;;;;;;5098133;28;20373;-88
2024/01/25 14:14:37;;;;;;;11.93;2.65;;;;;;;;;;5099540;28;20054;-87
2024/01/25 14:17:02;;;;;;;14.80;2.72;;;;;;;;;;5108690;28;20064;-86
2024/01/25 14:19:27;;;;;;;12.52;4.20;;;;;;;;;;5106302;28;20019;-86
2024/01/25 14:21:53;;;;;;;14.57;2.90;;;;;;;;;;5101023;28;20061;-86